Time;durP1;ratioP1;P1;durP2;ratioP2;P2;SDS_P1;SDS_P2;PMS_P1;PMS_P2;Temp;Humidity;BMP_temperature;BMP_pressure;BME280_temperature;BME280_humidity;BME280_pressure;Samples;Min_cycle;Max_cycle;Signal;HPM_P1;HPM_P2
2022/11/12 00:01:53;;;;;;;5.47;5.00;;;;;;;;;;4997996;28;20343;-74
2022/11/12 00:04:19;;;;;;;3.80;3.60;;;;;;;;;;4979886;28;20526;-73
2022/11/12 00:06:45;;;;;;;6.50;5.30;;;;;;;;;;4997967;28;20466;-73
2022/11/12 00:09:11;;;;;;;7.17;6.53;;;;;;;;;;4992051;28;20953;-73
2022/11/12 00:11:37;;;;;;;15.77;9.63;;;;;;;;;;4988556;28;21041;-73
2022/11/12 00:14:03;;;;;;;8.83;7.50;;;;;;;;;;4995026;28;20512;-73
2022/11/12 00:16:29;;;;;;;14.90;10.83;;;;;;;;;;4995824;28;21084;-72
2022/11/12 00:18:55;;;;;;;15.00;9.10;;;;;;;;;;4988035;28;20523;-73
2022/11/12 00:21:21;;;;;;;9.10;7.23;;;;;;;;;;5000664;28;20436;-73
2022/11/12 00:23:47;;;;;;;9.13;7.83;;;;;;;;;;4978790;28;21003;-75
2022/11/12 00:26:13;;;;;;;10.70;8.27;;;;;;;;;;5005067;28;20965;-73
2022/11/12 00:28:39;;;;;;;6.50;6.00;;;;;;;;;;5008546;28;20201;-74
2022/11/12 00:31:09;;;;;;;10.57;8.90;;;;;;;;;;5009896;28;20468;-72
2022/11/12 00:33:40;;;;;;;9.10;7.97;;;;;;;;;;5005422;28;20486;-72
2022/11/12 00:36:08;;;;;;;9.23;6.50;;;;;;;;;;4996946;28;20801;-73
2022/11/12 00:38:34;;;;;;;5.07;4.68;;;;;;;;;;4969434;28;20436;-73
2022/11/12 00:41:00;;;;;;;8.17;6.90;;;;;;;;;;4982166;28;20224;-73
2022/11/12 00:43:26;;;;;;;9.90;8.98;;;;;;;;;;4987482;28;20899;-73
2022/11/12 00:45:55;;;;;;;7.03;6.50;;;;;;;;;;4986284;28;20224;-72
2022/11/12 00:48:21;;;;;;;9.03;8.13;;;;;;;;;;4995884;28;20236;-72
2022/11/12 00:50:47;;;;;;;11.30;8.70;;;;;;;;;;4995078;28;20426;-73
2022/11/12 00:53:13;;;;;;;8.03;7.00;;;;;;;;;;4997200;28;20962;-73
2022/11/12 00:55:38;;;;;;;9.33;8.53;;;;;;;;;;4975612;28;20438;-73
2022/11/12 00:58:04;;;;;;;9.20;8.30;;;;;;;;;;4978460;28;20810;-73
2022/11/12 01:00:30;;;;;;;7.40;6.90;;;;;;;;;;4992486;28;20522;-72
2022/11/12 01:02:56;;;;;;;7.43;6.07;;;;;;;;;;4984377;28;20648;-73
2022/11/12 01:05:24;;;;;;;7.57;6.97;;;;;;;;;;4982615;28;20472;-72
2022/11/12 01:07:50;;;;;;;6.07;5.47;;;;;;;;;;4984883;28;20862;-72
2022/11/12 01:10:16;;;;;;;6.60;6.07;;;;;;;;;;4986130;28;21227;-72
2022/11/12 01:12:42;;;;;;;5.65;5.35;;;;;;;;;;4985230;28;20181;-73
2022/11/12 01:15:09;;;;;;;11.40;8.30;;;;;;;;;;4997490;28;20324;-73
2022/11/12 01:17:35;;;;;;;6.83;6.43;;;;;;;;;;4990871;28;20858;-73
2022/11/12 01:20:01;;;;;;;8.17;7.47;;;;;;;;;;4993323;28;20812;-73
2022/11/12 01:22:28;;;;;;;5.70;5.20;;;;;;;;;;4988648;28;21104;-72
2022/11/12 01:24:54;;;;;;;5.90;5.53;;;;;;;;;;4992426;28;20554;-72
2022/11/12 01:27:20;;;;;;;5.23;5.00;;;;;;;;;;5003309;28;20977;-72
2022/11/12 01:29:46;;;;;;;5.55;5.25;;;;;;;;;;4997846;28;20443;-73
2022/11/12 01:32:12;;;;;;;4.90;4.70;;;;;;;;;;5006456;28;20266;-72
2022/11/12 01:34:39;;;;;;;4.40;4.20;;;;;;;;;;4998718;28;20439;-73
2022/11/12 01:37:05;;;;;;;4.27;4.07;;;;;;;;;;4996205;28;20215;-73
2022/11/12 01:39:31;;;;;;;6.67;4.93;;;;;;;;;;4979090;28;20498;-72
2022/11/12 01:41:57;;;;;;;5.78;5.28;;;;;;;;;;4986735;28;20494;-73
2022/11/12 01:44:25;;;;;;;6.37;5.47;;;;;;;;;;4998777;28;20216;-73
2022/11/12 01:47:00;;;;;;;6.13;5.50;;;;;;;;;;4992838;28;20435;-72
2022/11/12 01:49:29;;;;;;;4.47;4.27;;;;;;;;;;4992476;28;20470;-74
2022/11/12 01:51:56;;;;;;;4.50;4.30;;;;;;;;;;4995322;28;21009;-73
2022/11/12 01:54:23;;;;;;;4.63;4.43;;;;;;;;;;4996411;28;20224;-73
2022/11/12 01:56:50;;;;;;;4.43;4.27;;;;;;;;;;4995211;28;20443;-74
2022/11/12 01:59:27;;;;;;;5.55;5.00;;;;;;;;;;4995874;28;20470;-74
2022/11/12 02:01:53;;;;;;;4.60;4.40;;;;;;;;;;5002470;28;20180;-73
2022/11/12 02:04:20;;;;;;;5.40;5.20;;;;;;;;;;4994158;28;20517;-73
2022/11/12 02:06:47;;;;;;;5.53;4.95;;;;;;;;;;4999566;28;20476;-73
2022/11/12 02:09:13;;;;;;;5.20;4.95;;;;;;;;;;4995891;28;20197;-74
2022/11/12 02:11:39;;;;;;;6.30;5.80;;;;;;;;;;4978448;28;20810;-74
2022/11/12 02:14:06;;;;;;;5.13;4.72;;;;;;;;;;4998324;28;20510;-73
2022/11/12 02:16:34;;;;;;;5.00;4.70;;;;;;;;;;5001347;28;20197;-73
2022/11/12 02:19:00;;;;;;;5.50;5.20;;;;;;;;;;4987588;28;20812;-73
2022/11/12 02:21:27;;;;;;;4.93;4.63;;;;;;;;;;4965237;28;20522;-73
2022/11/12 02:24:04;;;;;;;5.00;4.70;;;;;;;;;;4998780;28;20444;-73
2022/11/12 02:26:33;;;;;;;5.33;5.03;;;;;;;;;;4977552;28;20511;-73
2022/11/12 02:28:59;;;;;;;6.37;5.97;;;;;;;;;;5002786;28;21000;-74
2022/11/12 02:31:25;;;;;;;4.82;4.38;;;;;;;;;;4978471;28;20524;-73
2022/11/12 02:33:51;;;;;;;4.43;4.03;;;;;;;;;;4974709;28;20690;-73
2022/11/12 02:36:17;;;;;;;3.95;3.75;;;;;;;;;;4992933;28;20451;-73
2022/11/12 02:38:43;;;;;;;7.82;3.90;;;;;;;;;;5001639;28;20181;-73
2022/11/12 02:41:09;;;;;;;4.73;4.53;;;;;;;;;;4990731;28;20200;-74
2022/11/12 02:43:35;;;;;;;4.67;4.40;;;;;;;;;;4995138;28;20527;-73
2022/11/12 02:46:01;;;;;;;4.45;4.25;;;;;;;;;;4991189;28;23053;-73
2022/11/12 02:48:27;;;;;;;5.47;5.07;;;;;;;;;;4992661;28;20652;-73
2022/11/12 02:50:53;;;;;;;4.50;4.30;;;;;;;;;;4978401;28;20456;-72
2022/11/12 02:53:20;;;;;;;4.03;3.83;;;;;;;;;;4997619;28;20427;-73
2022/11/12 02:55:46;;;;;;;5.67;5.27;;;;;;;;;;4986764;28;20464;-74
2022/11/12 02:58:12;;;;;;;6.90;4.63;;;;;;;;;;4996859;28;20482;-74
2022/11/12 03:00:38;;;;;;;5.20;4.90;;;;;;;;;;4988231;28;20520;-73
2022/11/12 03:03:04;;;;;;;4.90;4.70;;;;;;;;;;4996078;28;20518;-73
2022/11/12 03:05:31;;;;;;;4.60;4.40;;;;;;;;;;4985658;28;20490;-73
2022/11/12 03:08:01;;;;;;;4.97;4.67;;;;;;;;;;4989344;28;20444;-73
2022/11/12 03:10:28;;;;;;;6.83;4.80;;;;;;;;;;4995118;28;20519;-73
2022/11/12 03:12:56;;;;;;;5.20;5.00;;;;;;;;;;4993676;28;20475;-73
2022/11/12 03:15:23;;;;;;;4.97;4.57;;;;;;;;;;4998441;28;20566;-73
2022/11/12 03:17:49;;;;;;;4.87;4.53;;;;;;;;;;4989901;28;21002;-73
2022/11/12 03:20:15;;;;;;;4.23;3.90;;;;;;;;;;4993478;28;20463;-73
2022/11/12 03:22:41;;;;;;;5.40;5.00;;;;;;;;;;4990663;28;20486;-73
2022/11/12 03:25:08;;;;;;;4.67;4.37;;;;;;;;;;4992848;28;20515;-73
2022/11/12 03:27:34;;;;;;;4.50;4.30;;;;;;;;;;4991672;28;20826;-74
2022/11/12 03:30:01;;;;;;;4.77;4.37;;;;;;;;;;4996571;28;20192;-72
2022/11/12 03:32:27;;;;;;;4.10;4.00;;;;;;;;;;4993063;28;20511;-73
2022/11/12 03:34:53;;;;;;;4.07;3.83;;;;;;;;;;4995433;28;20402;-73
2022/11/12 03:37:19;;;;;;;4.80;4.60;;;;;;;;;;4994416;28;20432;-73
2022/11/12 03:39:45;;;;;;;5.38;5.07;;;;;;;;;;4993004;28;20185;-74
2022/11/12 03:42:11;;;;;;;7.70;5.03;;;;;;;;;;4995693;28;20193;-73
2022/11/12 03:44:37;;;;;;;4.67;4.47;;;;;;;;;;4997301;28;20204;-74
2022/11/12 03:47:05;;;;;;;5.43;4.90;;;;;;;;;;4987352;28;20441;-72
2022/11/12 03:49:31;;;;;;;6.23;5.07;;;;;;;;;;4993490;28;20203;-74
2022/11/12 03:51:57;;;;;;;5.53;5.07;;;;;;;;;;4994276;28;20755;-74
2022/11/12 03:54:23;;;;;;;5.72;5.32;;;;;;;;;;4969136;28;20988;-74
2022/11/12 03:56:49;;;;;;;22.80;14.00;;;;;;;;;;4995235;28;20196;-73
2022/11/12 03:59:15;;;;;;;6.00;5.50;;;;;;;;;;5004295;28;20431;-73
2022/11/12 04:01:41;;;;;;;5.75;5.45;;;;;;;;;;4985971;28;20283;-74
2022/11/12 04:04:09;;;;;;;5.17;4.77;;;;;;;;;;4994183;28;20791;-74
2022/11/12 04:09:19;;;;;;;4.65;4.35;;;;;;;;;;4990435;28;20820;-73
2022/11/12 04:14:49;;;;;;;6.10;4.20;;;;;;;;;;4990448;28;20206;-74
2022/11/12 04:22:47;;;;;;;4.77;4.47;;;;;;;;;;4990733;28;20576;-73
2022/11/12 04:27:57;;;;;;;4.85;4.55;;;;;;;;;;4996204;28;20258;-73
2022/11/12 04:30:25;;;;;;;4.90;4.70;;;;;;;;;;4992002;28;20229;-73
2022/11/12 04:32:53;;;;;;;4.63;4.38;;;;;;;;;;4993569;28;20197;-73
2022/11/12 04:35:20;;;;;;;4.93;4.55;;;;;;;;;;4994625;28;20192;-73
2022/11/12 04:37:46;;;;;;;5.15;4.85;;;;;;;;;;4993744;28;20258;-73
2022/11/12 04:45:54;;;;;;;5.55;4.90;;;;;;;;;;4987472;28;20575;-74
2022/11/12 04:48:21;;;;;;;5.80;5.40;;;;;;;;;;4999307;28;20196;-73
2022/11/12 04:50:49;;;;;;;5.23;4.93;;;;;;;;;;5004906;28;20735;-74
2022/11/12 04:53:15;;;;;;;5.33;4.83;;;;;;;;;;4988291;28;20423;-73
2022/11/12 04:55:41;;;;;;;4.87;4.70;;;;;;;;;;4970508;28;20472;-72
2022/11/12 04:58:07;;;;;;;5.50;5.10;;;;;;;;;;4995139;28;20474;-73
2022/11/12 05:00:33;;;;;;;5.43;5.10;;;;;;;;;;4992615;28;20418;-73
2022/11/12 05:02:59;;;;;;;5.50;4.97;;;;;;;;;;5000111;28;20511;-73
2022/11/12 05:05:25;;;;;;;6.13;4.33;;;;;;;;;;4992178;28;20471;-73
2022/11/12 05:07:51;;;;;;;4.77;4.37;;;;;;;;;;5004028;28;20431;-72
2022/11/12 05:10:17;;;;;;;4.60;4.40;;;;;;;;;;4998240;28;20451;-72
2022/11/12 05:12:43;;;;;;;4.88;4.68;;;;;;;;;;4995120;28;20455;-72
2022/11/12 05:15:13;;;;;;;5.28;5.07;;;;;;;;;;4995356;28;20196;-73
2022/11/12 05:17:42;;;;;;;5.67;5.17;;;;;;;;;;4998236;28;20272;-73
2022/11/12 05:20:09;;;;;;;4.90;4.60;;;;;;;;;;5003037;28;20447;-73
2022/11/12 05:22:35;;;;;;;5.27;4.77;;;;;;;;;;5006386;28;20942;-73
2022/11/12 05:25:01;;;;;;;4.30;4.10;;;;;;;;;;4996842;28;20530;-73
2022/11/12 05:27:27;;;;;;;5.13;4.60;;;;;;;;;;5000455;28;20401;-75
2022/11/12 05:29:53;;;;;;;4.90;4.50;;;;;;;;;;4995039;28;20440;-73
2022/11/12 05:32:19;;;;;;;6.50;6.20;;;;;;;;;;5002229;28;20443;-73
2022/11/12 05:34:45;;;;;;;5.63;5.20;;;;;;;;;;5002769;28;20189;-73
2022/11/12 05:37:12;;;;;;;5.80;5.30;;;;;;;;;;5002897;28;20429;-73
2022/11/12 05:39:38;;;;;;;7.72;6.03;;;;;;;;;;4997454;28;20274;-73
2022/11/12 05:42:04;;;;;;;6.43;6.03;;;;;;;;;;4999336;28;20189;-74
2022/11/12 05:44:30;;;;;;;5.82;5.43;;;;;;;;;;4990322;28;20201;-74
2022/11/12 05:46:57;;;;;;;5.22;4.93;;;;;;;;;;4998598;28;20192;-74
2022/11/12 05:49:23;;;;;;;6.10;5.60;;;;;;;;;;4992702;28;20189;-73
2022/11/12 05:51:49;;;;;;;5.00;4.57;;;;;;;;;;4992638;28;20197;-73
2022/11/12 05:54:15;;;;;;;5.07;4.78;;;;;;;;;;4983141;28;20184;-74
2022/11/12 05:56:41;;;;;;;5.35;4.95;;;;;;;;;;4979054;28;20278;-74
2022/11/12 05:59:09;;;;;;;5.38;5.07;;;;;;;;;;4998134;28;20640;-73
2022/11/12 06:01:42;;;;;;;5.20;4.65;;;;;;;;;;4992602;28;20201;-74
2022/11/12 06:04:09;;;;;;;5.73;5.33;;;;;;;;;;4985475;28;20991;-73
2022/11/12 06:06:36;;;;;;;5.10;4.90;;;;;;;;;;4995207;28;20499;-74
2022/11/12 06:09:02;;;;;;;6.63;6.03;;;;;;;;;;4997137;28;20188;-73
2022/11/12 06:11:28;;;;;;;5.83;5.53;;;;;;;;;;5000852;28;20473;-73
2022/11/12 06:13:54;;;;;;;5.40;5.10;;;;;;;;;;4993676;28;20931;-74
2022/11/12 06:16:20;;;;;;;5.00;4.80;;;;;;;;;;4991261;28;20447;-74
2022/11/12 06:18:46;;;;;;;5.43;5.13;;;;;;;;;;5004817;28;20494;-74
2022/11/12 06:21:18;;;;;;;4.95;4.75;;;;;;;;;;4990606;28;20246;-74
2022/11/12 06:23:44;;;;;;;4.80;4.40;;;;;;;;;;5001774;28;20188;-74
2022/11/12 06:26:10;;;;;;;5.00;4.70;;;;;;;;;;4994465;28;20537;-73
2022/11/12 06:28:36;;;;;;;5.03;4.73;;;;;;;;;;5001601;28;20439;-73
2022/11/12 06:31:02;;;;;;;5.07;4.68;;;;;;;;;;4999578;28;20437;-73
2022/11/12 06:33:28;;;;;;;4.68;4.47;;;;;;;;;;4987201;28;20632;-74
2022/11/12 06:36:01;;;;;;;4.00;3.83;;;;;;;;;;4997724;28;20187;-73
2022/11/12 06:38:31;;;;;;;4.60;4.30;;;;;;;;;;4997672;28;20670;-74
2022/11/12 06:40:57;;;;;;;5.80;5.20;;;;;;;;;;4993158;28;20439;-74
2022/11/12 06:43:23;;;;;;;4.55;4.28;;;;;;;;;;5003343;28;20506;-74
2022/11/12 06:45:50;;;;;;;4.97;4.50;;;;;;;;;;4986930;28;20205;-73
2022/11/12 06:48:16;;;;;;;5.60;5.10;;;;;;;;;;4979123;28;20978;-72
2022/11/12 06:50:42;;;;;;;4.77;4.40;;;;;;;;;;4999143;28;20424;-72
2022/11/12 06:53:08;;;;;;;4.57;4.38;;;;;;;;;;4991213;28;20435;-74
2022/11/12 06:55:34;;;;;;;4.47;4.15;;;;;;;;;;4975670;28;20193;-73
2022/11/12 06:58:00;;;;;;;7.55;4.38;;;;;;;;;;4988245;28;20563;-73
2022/11/12 07:00:26;;;;;;;4.38;4.03;;;;;;;;;;4990240;28;20264;-73
2022/11/12 07:02:52;;;;;;;4.80;4.43;;;;;;;;;;4992622;28;20188;-73
2022/11/12 07:05:18;;;;;;;4.83;4.63;;;;;;;;;;4994058;28;20229;-74
2022/11/12 07:07:44;;;;;;;4.20;4.00;;;;;;;;;;4996120;28;20481;-73
2022/11/12 07:10:10;;;;;;;7.27;5.80;;;;;;;;;;4992196;28;20685;-74
2022/11/12 07:12:37;;;;;;;7.80;7.20;;;;;;;;;;4995057;28;20483;-74
2022/11/12 07:15:03;;;;;;;6.70;6.10;;;;;;;;;;4996024;28;20189;-73
2022/11/12 07:17:29;;;;;;;5.47;5.13;;;;;;;;;;4995659;28;20431;-74
2022/11/12 07:19:55;;;;;;;5.75;5.43;;;;;;;;;;4997899;28;20201;-73
2022/11/12 07:22:21;;;;;;;9.95;6.05;;;;;;;;;;4974223;28;20202;-74
2022/11/12 07:24:47;;;;;;;6.47;5.00;;;;;;;;;;4990480;28;20608;-74
2022/11/12 07:27:13;;;;;;;5.35;5.05;;;;;;;;;;4990739;28;20439;-74
2022/11/12 07:29:39;;;;;;;5.65;5.25;;;;;;;;;;4994966;28;20200;-74
2022/11/12 07:32:06;;;;;;;4.23;4.03;;;;;;;;;;4997037;28;20184;-74
2022/11/12 07:34:32;;;;;;;6.15;5.65;;;;;;;;;;4993390;28;20541;-72
2022/11/12 07:36:58;;;;;;;4.87;4.67;;;;;;;;;;4989977;28;20189;-73
2022/11/12 07:39:24;;;;;;;4.97;4.57;;;;;;;;;;4987171;28;20443;-73
2022/11/12 07:41:51;;;;;;;5.20;5.00;;;;;;;;;;4990457;28;20804;-73
2022/11/12 07:44:17;;;;;;;6.33;5.83;;;;;;;;;;4640105;28;9999888;-76
2022/11/12 07:46:58;;;;;;;4.50;4.30;;;;;;;;;;4990513;28;20185;-75
2022/11/12 07:49:24;;;;;;;5.20;4.90;;;;;;;;;;4986683;28;20196;-74
2022/11/12 07:51:50;;;;;;;8.00;6.10;;;;;;;;;;4986249;28;20425;-75
2022/11/12 07:54:16;;;;;;;6.83;6.43;;;;;;;;;;4970394;28;20471;-75
2022/11/12 07:56:43;;;;;;;6.47;5.87;;;;;;;;;;4973049;28;20965;-74
2022/11/12 07:59:09;;;;;;;4.90;4.70;;;;;;;;;;4985319;28;20534;-73
2022/11/12 08:01:36;;;;;;;5.77;5.40;;;;;;;;;;4990924;28;20227;-73
2022/11/12 08:12:08;;;;;;;5.57;5.07;;;;;;;;;;4975360;28;20222;-84
2022/11/12 08:14:34;;;;;;;5.70;5.35;;;;;;;;;;4996678;28;20189;-80
2022/11/12 08:17:00;;;;;;;5.90;5.57;;;;;;;;;;4983893;28;20208;-83
2022/11/12 08:19:26;;;;;;;5.20;5.00;;;;;;;;;;4977950;28;20182;-82
2022/11/12 08:21:55;;;;;;;5.93;5.30;;;;;;;;;;4980554;28;20190;-83
2022/11/12 08:24:21;;;;;;;5.18;4.88;;;;;;;;;;4986234;28;20194;-82
2022/11/12 08:26:47;;;;;;;5.70;5.23;;;;;;;;;;4992679;28;20181;-81
2022/11/12 08:29:13;;;;;;;5.13;4.72;;;;;;;;;;5011540;28;20440;-82
2022/11/12 08:31:39;;;;;;;5.00;4.80;;;;;;;;;;5004177;28;20201;-82
2022/11/12 08:34:11;;;;;;;4.85;4.65;;;;;;;;;;4995879;28;20432;-81
2022/11/12 08:36:39;;;;;;;5.50;5.15;;;;;;;;;;4973289;28;20316;-80
2022/11/12 08:39:07;;;;;;;6.50;5.97;;;;;;;;;;4983180;28;20566;-82
2022/11/12 08:41:34;;;;;;;5.30;5.00;;;;;;;;;;4980214;28;20432;-82
2022/11/12 08:44:00;;;;;;;5.37;5.07;;;;;;;;;;4982537;28;20433;-82
2022/11/12 08:46:26;;;;;;;6.27;5.87;;;;;;;;;;4970652;28;20863;-82
2022/11/12 08:48:52;;;;;;;8.03;6.50;;;;;;;;;;4977793;28;20786;-80
2022/11/12 08:51:20;;;;;;;6.67;5.97;;;;;;;;;;4970128;28;20445;-82
2022/11/12 08:53:46;;;;;;;6.70;6.05;;;;;;;;;;4972934;28;20437;-80
2022/11/12 08:56:12;;;;;;;5.10;4.90;;;;;;;;;;4990620;28;20200;-83
2022/11/12 08:58:39;;;;;;;5.40;5.00;;;;;;;;;;4981452;28;20903;-87
2022/11/12 09:01:06;;;;;;;5.40;4.90;;;;;;;;;;4990567;28;20918;-81
2022/11/12 09:03:32;;;;;;;4.60;4.40;;;;;;;;;;4972385;28;20481;-82
2022/11/12 09:06:01;;;;;;;5.70;5.33;;;;;;;;;;4988095;28;20472;-81
2022/11/12 09:08:27;;;;;;;4.10;3.90;;;;;;;;;;4985041;28;20488;-82
2022/11/12 09:10:53;;;;;;;4.43;4.03;;;;;;;;;;4984195;28;20467;-80
2022/11/12 09:13:20;;;;;;;3.73;3.63;;;;;;;;;;4969639;28;20480;-79
2022/11/12 09:15:46;;;;;;;4.47;4.00;;;;;;;;;;4966254;28;20572;-79
2022/11/12 09:18:16;;;;;;;4.07;3.97;;;;;;;;;;4964745;28;20495;-80
2022/11/12 09:20:42;;;;;;;4.47;4.17;;;;;;;;;;4967499;28;20452;-79
2022/11/12 09:23:10;;;;;;;5.03;4.73;;;;;;;;;;4969502;28;20437;-78
2022/11/12 09:25:37;;;;;;;4.40;4.30;;;;;;;;;;4962317;28;20464;-79
2022/11/12 09:28:10;;;;;;;4.87;4.47;;;;;;;;;;4970485;28;20457;-80
2022/11/12 09:30:37;;;;;;;4.10;4.00;;;;;;;;;;4967630;28;20907;-79
2022/11/12 09:33:03;;;;;;;5.10;4.90;;;;;;;;;;4967117;28;20464;-79
2022/11/12 09:35:30;;;;;;;5.80;5.50;;;;;;;;;;4982764;28;20433;-77
2022/11/12 09:37:57;;;;;;;4.30;4.20;;;;;;;;;;4968136;28;20444;-80
2022/11/12 09:40:30;;;;;;;5.60;5.40;;;;;;;;;;4972347;28;20500;-81
2022/11/12 09:42:56;;;;;;;4.40;4.30;;;;;;;;;;4962198;28;20429;-79
2022/11/12 09:45:26;;;;;;;4.97;4.57;;;;;;;;;;4967825;28;20465;-78
2022/11/12 09:47:55;;;;;;;5.53;4.93;;;;;;;;;;4621525;28;10000461;-79
2022/11/12 09:50:21;;;;;;;5.00;4.80;;;;;;;;;;4967403;28;20190;-79
2022/11/12 09:52:49;;;;;;;4.57;4.40;;;;;;;;;;4957894;28;20414;-79
2022/11/12 09:55:35;;;;;;;4.90;4.60;;;;;;;;;;4965835;28;20418;-80
2022/11/12 09:58:01;;;;;;;4.20;3.90;;;;;;;;;;4964574;28;20440;-82
2022/11/12 10:00:28;;;;;;;4.10;3.90;;;;;;;;;;4968575;28;20548;-80
2022/11/12 10:03:00;;;;;;;4.33;4.13;;;;;;;;;;4961784;28;20455;-80
2022/11/12 10:05:45;;;;;;;5.70;5.40;;;;;;;;;;4965229;28;20476;-79
2022/11/12 10:08:21;;;;;;;4.37;4.27;;;;;;;;;;4966260;28;20471;-77
2022/11/12 10:10:49;;;;;;;4.47;4.27;;;;;;;;;;4965261;28;20461;-76
2022/11/12 10:13:15;;;;;;;4.63;4.33;;;;;;;;;;4964621;28;20504;-74
2022/11/12 10:18:44;;;;;;;7.20;4.70;;;;;;;;;;4964166;28;20447;-82
2022/11/12 10:21:27;;;;;;;4.60;4.20;;;;;;;;;;4975362;28;20440;-80
2022/11/12 10:23:53;;;;;;;3.80;3.70;;;;;;;;;;4970272;28;20813;-81
2022/11/12 10:26:21;;;;;;;4.33;4.13;;;;;;;;;;4975917;28;20487;-80
2022/11/12 10:28:49;;;;;;;4.07;3.97;;;;;;;;;;4972240;28;20840;-79
2022/11/12 10:31:18;;;;;;;4.53;4.40;;;;;;;;;;4962872;28;20523;-82
2022/11/12 10:33:44;;;;;;;3.60;3.50;;;;;;;;;;4959699;28;20426;-82
2022/11/12 10:36:13;;;;;;;3.77;3.67;;;;;;;;;;4976620;28;20509;-81
2022/11/12 10:38:41;;;;;;;4.87;4.67;;;;;;;;;;4975841;28;20418;-81
2022/11/12 10:41:27;;;;;;;3.60;3.40;;;;;;;;;;4973872;28;20449;-85
2022/11/12 10:43:53;;;;;;;2.83;2.50;;;;;;;;;;4976381;28;20431;-82
2022/11/12 10:46:45;;;;;;;3.10;3.00;;;;;;;;;;4968992;28;20813;-82
2022/11/12 10:49:15;;;;;;;2.90;2.90;;;;;;;;;;4959137;28;20448;-80
2022/11/12 10:51:41;;;;;;;3.33;3.13;;;;;;;;;;4971011;28;20481;-81
2022/11/12 10:54:19;;;;;;;2.70;2.60;;;;;;;;;;4966709;28;20469;-82
2022/11/12 10:56:47;;;;;;;5.30;3.67;;;;;;;;;;4965460;28;20943;-82
2022/11/12 10:59:13;;;;;;;2.80;2.53;;;;;;;;;;4976586;28;20469;-80
2022/11/12 11:01:39;;;;;;;3.30;2.47;;;;;;;;;;4968504;28;20484;-82
2022/11/12 11:04:06;;;;;;;3.10;2.90;;;;;;;;;;4969341;28;20465;-82
2022/11/12 11:06:34;;;;;;;2.87;2.77;;;;;;;;;;4969483;28;20524;-83
2022/11/12 11:09:13;;;;;;;2.87;2.40;;;;;;;;;;4978681;28;20527;-84
2022/11/12 11:11:48;;;;;;;2.60;2.53;;;;;;;;;;4972600;28;20455;-82
2022/11/12 11:14:23;;;;;;;2.90;2.80;;;;;;;;;;4968131;28;21089;-82
2022/11/12 11:16:53;;;;;;;2.30;2.30;;;;;;;;;;4962911;28;20417;-82
2022/11/12 11:19:19;;;;;;;2.30;2.23;;;;;;;;;;4975958;28;20452;-81
2022/11/12 11:21:45;;;;;;;2.77;2.67;;;;;;;;;;4968210;28;20463;-81
2022/11/12 11:24:30;;;;;;;2.50;2.10;;;;;;;;;;4978489;28;20527;-83
2022/11/12 11:26:56;;;;;;;1.87;1.77;;;;;;;;;;4982451;28;20829;-83
2022/11/12 11:29:22;;;;;;;3.03;3.03;;;;;;;;;;4973646;28;20445;-81
2022/11/12 11:32:07;;;;;;;3.30;3.20;;;;;;;;;;4972911;28;20443;-82
2022/11/12 11:34:39;;;;;;;2.63;2.53;;;;;;;;;;4967447;28;20548;-80
2022/11/12 11:37:05;;;;;;;2.83;2.73;;;;;;;;;;4968958;28;20896;-80
2022/11/12 11:39:38;;;;;;;3.10;2.90;;;;;;;;;;4974592;28;20436;-80
2022/11/12 11:42:23;;;;;;;2.10;2.10;;;;;;;;;;4973694;28;20997;-80
2022/11/12 11:45:07;;;;;;;2.83;2.77;;;;;;;;;;4956863;28;20965;-79
2022/11/12 11:47:36;;;;;;;4.13;3.90;;;;;;;;;;4282285;28;10000737;-79
2022/11/12 11:50:11;;;;;;;2.53;2.43;;;;;;;;;;4970624;28;20198;-77
2022/11/12 11:52:52;;;;;;;2.40;2.40;;;;;;;;;;4971412;28;20785;-82
2022/11/12 11:55:29;;;;;;;1.87;1.87;;;;;;;;;;4966363;28;20437;-80
2022/11/12 11:58:04;;;;;;;2.73;2.67;;;;;;;;;;4971175;28;20499;-81
2022/11/12 12:00:35;;;;;;;2.20;2.20;;;;;;;;;;4978119;28;20428;-82
2022/11/12 12:03:39;;;;;;;2.20;2.20;;;;;;;;;;4975754;28;21084;-83
2022/11/12 12:06:15;;;;;;;1.60;1.60;;;;;;;;;;4906550;29;20531;-81
2022/11/12 12:08:59;;;;;;;2.20;2.10;;;;;;;;;;4923084;29;20482;-84
2022/11/12 12:11:44;;;;;;;3.23;3.13;;;;;;;;;;4959038;28;20479;-82
2022/11/12 12:14:36;;;;;;;2.23;2.23;;;;;;;;;;4980390;28;20527;-83
2022/11/12 12:17:15;;;;;;;2.80;2.70;;;;;;;;;;4945015;28;20444;-80
2022/11/12 12:19:41;;;;;;;2.00;1.90;;;;;;;;;;4989443;28;20445;-81
2022/11/12 12:22:14;;;;;;;2.37;2.30;;;;;;;;;;4988609;28;20456;-80
2022/11/12 12:25:03;;;;;;;2.50;2.40;;;;;;;;;;4988489;28;20517;-81
2022/11/12 12:27:31;;;;;;;2.00;1.90;;;;;;;;;;4995081;28;20456;-80
2022/11/12 12:30:02;;;;;;;4.33;2.47;;;;;;;;;;4980148;28;20416;-81
2022/11/12 12:32:30;;;;;;;1.90;1.90;;;;;;;;;;4979214;28;20797;-78
2022/11/12 12:35:12;;;;;;;2.10;2.10;;;;;;;;;;4981167;28;20472;-81
2022/11/12 12:37:46;;;;;;;2.43;2.33;;;;;;;;;;4969097;28;20529;-87
2022/11/12 12:40:24;;;;;;;1.87;1.87;;;;;;;;;;4986525;28;20808;-84
2022/11/12 12:42:56;;;;;;;1.90;1.90;;;;;;;;;;4978730;28;20468;-85
2022/11/12 12:45:31;;;;;;;2.00;1.90;;;;;;;;;;4986080;28;20483;-85
2022/11/12 12:47:58;;;;;;;1.83;1.80;;;;;;;;;;4982299;28;20431;-84
2022/11/12 12:50:25;;;;;;;2.37;2.27;;;;;;;;;;4981190;28;20437;-83
2022/11/12 12:53:00;;;;;;;1.73;1.73;;;;;;;;;;4972023;28;20456;-83
2022/11/12 12:55:40;;;;;;;1.90;1.80;;;;;;;;;;4981492;28;20433;-83
2022/11/12 12:58:18;;;;;;;2.10;2.00;;;;;;;;;;4975137;28;20559;-80
2022/11/12 13:00:54;;;;;;;2.30;2.30;;;;;;;;;;4973694;28;20542;-81
2022/11/12 13:03:39;;;;;;;1.70;1.70;;;;;;;;;;4968553;28;20987;-84
2022/11/12 13:06:13;;;;;;;2.40;2.30;;;;;;;;;;4992040;28;20463;-84
2022/11/12 13:08:39;;;;;;;3.20;3.00;;;;;;;;;;4988114;28;20494;-81
2022/11/12 13:11:05;;;;;;;4.33;2.20;;;;;;;;;;4988724;28;20677;-82
2022/11/12 13:13:35;;;;;;;2.40;2.07;;;;;;;;;;4984639;28;20803;-82
2022/11/12 13:16:02;;;;;;;1.40;1.40;;;;;;;;;;4984347;28;20444;-79
2022/11/12 13:18:48;;;;;;;8.37;7.70;;;;;;;;;;4984761;28;20448;-82
2022/11/12 13:21:15;;;;;;;2.47;2.47;;;;;;;;;;4970265;28;20588;-82
2022/11/12 13:24:07;;;;;;;3.63;3.60;;;;;;;;;;4975744;28;20896;-83
2022/11/12 13:26:39;;;;;;;3.83;3.63;;;;;;;;;;4960680;28;20889;-83
2022/11/12 13:29:38;;;;;;;5.57;5.27;;;;;;;;;;4967157;28;20524;-82
2022/11/12 13:32:22;;;;;;;7.00;6.60;;;;;;;;;;4933560;28;20452;-82
2022/11/12 13:34:48;;;;;;;5.93;5.63;;;;;;;;;;4978238;28;20970;-82
2022/11/12 13:37:19;;;;;;;5.00;4.77;;;;;;;;;;4983626;28;20961;-82
2022/11/12 13:39:45;;;;;;;10.73;9.83;;;;;;;;;;4973571;28;20453;-81
2022/11/12 13:45:15;;;;;;;3.63;3.43;;;;;;;;;;4964035;28;20835;-82
2022/11/12 13:47:41;;;;;;;4.57;4.37;;;;;;;;;;4972909;28;20629;-82
2022/11/12 13:50:09;;;;;;;4.67;4.47;;;;;;;;;;4977156;28;20432;-83
2022/11/12 13:52:35;;;;;;;4.30;3.83;;;;;;;;;;4968502;28;20441;-80
2022/11/12 13:55:02;;;;;;;5.47;5.00;;;;;;;;;;4975776;28;20451;-82
2022/11/12 13:57:29;;;;;;;7.27;6.73;;;;;;;;;;4963306;28;20693;-82
2022/11/12 14:00:14;;;;;;;3.57;3.37;;;;;;;;;;4988199;28;20424;-82
2022/11/12 14:02:43;;;;;;;5.30;5.00;;;;;;;;;;4962271;28;20454;-82
2022/11/12 14:05:13;;;;;;;3.33;3.10;;;;;;;;;;4982519;28;20959;-83
2022/11/12 14:08:01;;;;;;;7.97;7.17;;;;;;;;;;4971885;28;20449;-82
2022/11/12 14:10:36;;;;;;;5.30;5.00;;;;;;;;;;4927767;28;1161950;-82
2022/11/12 14:13:09;;;;;;;4.50;4.17;;;;;;;;;;4978857;28;20396;-80
2022/11/12 14:15:50;;;;;;;5.10;4.27;;;;;;;;;;4964738;28;20446;-80
2022/11/12 14:18:22;;;;;;;6.03;5.43;;;;;;;;;;4964766;28;21001;-82
2022/11/12 14:20:48;;;;;;;7.10;6.20;;;;;;;;;;4979952;28;20440;-78
2022/11/12 14:23:16;;;;;;;6.40;5.90;;;;;;;;;;4990858;28;20416;-80
2022/11/12 14:25:49;;;;;;;7.47;6.97;;;;;;;;;;4962476;28;20462;-81
2022/11/12 14:28:45;;;;;;;33.83;28.77;;;;;;;;;;4956313;28;20441;-82
2022/11/12 14:31:12;;;;;;;23.57;18.97;;;;;;;;;;4956917;28;20528;-82
2022/11/12 14:33:38;;;;;;;10.93;9.93;;;;;;;;;;4967272;28;20796;-82
2022/11/12 14:36:13;;;;;;;10.70;9.80;;;;;;;;;;4973276;28;20432;-82
2022/11/12 14:38:44;;;;;;;11.33;10.17;;;;;;;;;;4968134;28;20432;-82
2022/11/12 14:41:16;;;;;;;26.07;23.37;;;;;;;;;;4964341;28;20500;-79
2022/11/12 14:43:46;;;;;;;15.73;14.00;;;;;;;;;;4956008;28;20429;-82
2022/11/12 14:46:23;;;;;;;12.63;11.37;;;;;;;;;;4968608;28;20476;-82
2022/11/12 14:49:11;;;;;;;15.37;11.80;;;;;;;;;;4970074;28;20441;-78
2022/11/12 14:51:41;;;;;;;9.17;8.50;;;;;;;;;;4965690;28;20865;-78
2022/11/12 14:54:10;;;;;;;10.00;9.00;;;;;;;;;;4961831;28;20417;-81
2022/11/12 14:56:42;;;;;;;7.40;6.70;;;;;;;;;;4969011;28;20426;-83
2022/11/12 14:59:10;;;;;;;6.80;6.30;;;;;;;;;;4975871;28;20778;-82
2022/11/12 15:01:38;;;;;;;6.77;6.17;;;;;;;;;;4970987;28;20855;-82
2022/11/12 15:04:10;;;;;;;11.33;7.47;;;;;;;;;;4973661;28;20507;-80
2022/11/12 15:06:36;;;;;;;6.33;5.53;;;;;;;;;;4965698;28;20582;-80
2022/11/12 15:09:04;;;;;;;5.63;5.33;;;;;;;;;;4969530;28;20471;-81
2022/11/12 15:11:42;;;;;;;4.20;3.90;;;;;;;;;;4973836;28;20475;-80
2022/11/12 15:14:10;;;;;;;5.90;3.70;;;;;;;;;;4968390;28;20476;-81
2022/11/12 15:16:36;;;;;;;2.97;2.80;;;;;;;;;;4983958;28;20471;-83
2022/11/12 15:19:18;;;;;;;4.33;4.13;;;;;;;;;;4967433;28;20898;-83
2022/11/12 15:21:48;;;;;;;4.13;3.83;;;;;;;;;;4988776;28;20621;-83
2022/11/12 15:24:15;;;;;;;5.43;3.60;;;;;;;;;;4991135;28;20420;-82
2022/11/12 15:26:42;;;;;;;4.67;4.37;;;;;;;;;;4983862;28;20515;-83